09PA weather

Eagle Field
Port Matilda, Pennsylvania, United States

Public forecast

Using degrees Fahrenheit for public forecast. Weather courtesy of forecast.io.

Closest aviation weather report (METAR) to Eagle Field

Closest report is University Park Airport, 6.5 nm (12.0 km) ENE. Retrieved 2019/10/20 05:37 UTC (0 seconds ago):

KUNV 200537Z AUTO 00000KT 10SM CLR 10/05 A2995 RMK AO2 T01000046

Closest aviation forecast (TAF) to Eagle Field

Closest forecast is University Park Airport, 6.5 nm (12.0 km) ENE. Retrieved 2019-10-20 00:22 UTC (5 hours ago):

TAF KUNV 192320Z 2000/2024 VRB03KT P6SM OVC200 FM201500 VRB03KT P6SM OVC090 FM201800 VRB03KT P6SM OVC060 FM202200 36005KT P6SM OVC060